createdAt,value
2022-07-25T00:00:11.929Z,28.70
2022-07-25T00:02:39.078Z,28.70
2022-07-25T00:05:06.599Z,28.60
2022-07-25T00:07:33.538Z,28.60
2022-07-25T00:10:00.249Z,28.60
2022-07-25T00:12:26.959Z,28.60
2022-07-25T00:14:53.706Z,28.60
2022-07-25T00:17:20.386Z,28.50
2022-07-25T00:19:47.014Z,28.50
2022-07-25T00:22:13.654Z,28.50
2022-07-25T00:24:40.265Z,28.50
2022-07-25T00:27:08.285Z,28.50
2022-07-25T00:29:35.979Z,28.40
2022-07-25T00:32:02.812Z,28.40
2022-07-25T00:34:29.572Z,28.40
2022-07-25T00:36:56.231Z,28.40
2022-07-25T00:39:22.898Z,28.40
2022-07-25T00:41:49.988Z,28.30
2022-07-25T00:44:24.143Z,28.30
2022-07-25T00:46:52.044Z,28.30
2022-07-25T00:49:18.998Z,28.20
2022-07-25T00:51:46.080Z,28.20
2022-07-25T00:54:13.231Z,28.20
2022-07-25T00:56:40.798Z,28.10
2022-07-25T00:59:07.747Z,28.10
2022-07-25T01:01:34.632Z,28.10
2022-07-25T01:04:01.727Z,28.10
2022-07-25T01:06:28.483Z,28.00
2022-07-25T01:08:55.670Z,28.00
2022-07-25T01:11:23.101Z,28.00
2022-07-25T01:13:49.796Z,27.90
2022-07-25T01:16:16.646Z,27.90
2022-07-25T01:18:43.423Z,27.90
2022-07-25T01:21:10.587Z,27.90
2022-07-25T01:23:37.374Z,27.90
2022-07-25T01:26:04.441Z,27.80
2022-07-25T01:28:31.137Z,27.80
2022-07-25T01:30:58.354Z,27.80
2022-07-25T01:33:25.039Z,27.80
2022-07-25T01:35:52.033Z,27.80
2022-07-25T01:38:18.945Z,27.70
2022-07-25T01:40:45.781Z,27.70
2022-07-25T01:43:12.726Z,27.70
2022-07-25T01:45:39.541Z,27.70
2022-07-25T01:48:06.498Z,27.70
2022-07-25T01:50:33.191Z,27.70
2022-07-25T01:52:59.880Z,27.70
2022-07-25T01:55:26.523Z,27.60
2022-07-25T01:57:56.067Z,27.60
2022-07-25T02:00:23.110Z,27.60
2022-07-25T02:03:09.752Z,27.60
2022-07-25T02:05:36.512Z,27.60
2022-07-25T02:08:03.306Z,27.50
2022-07-25T02:10:29.969Z,27.50
2022-07-25T02:12:57.158Z,27.50
2022-07-25T02:15:23.807Z,27.50
2022-07-25T02:17:50.481Z,27.50
2022-07-25T02:20:17.121Z,27.50
2022-07-25T02:22:43.783Z,27.40
2022-07-25T02:25:10.578Z,27.40
2022-07-25T02:27:37.184Z,27.40
2022-07-25T02:30:05.363Z,27.40
2022-07-25T02:32:31.996Z,27.40
2022-07-25T02:34:58.624Z,27.40
2022-07-25T02:37:25.352Z,27.40
2022-07-25T02:39:52.023Z,27.40
2022-07-25T02:42:18.628Z,27.40
2022-07-25T02:44:45.298Z,27.30
2022-07-25T02:47:11.985Z,27.30
2022-07-25T02:49:38.615Z,27.30
2022-07-25T02:52:05.321Z,27.30
2022-07-25T02:54:31.928Z,27.20
2022-07-25T02:56:58.523Z,27.20
2022-07-25T02:59:25.143Z,27.20
2022-07-25T03:01:59.052Z,27.20
2022-07-25T03:04:25.938Z,27.20
2022-07-25T03:06:52.663Z,27.10
2022-07-25T03:09:19.415Z,27.20
2022-07-25T03:11:46.150Z,27.10
2022-07-25T03:14:12.803Z,27.10
2022-07-25T03:16:39.539Z,27.10
2022-07-25T03:19:10.240Z,27.10
2022-07-25T03:21:40.214Z,27.10
2022-07-25T03:24:07.369Z,27.10
2022-07-25T03:26:34.446Z,27.10
2022-07-25T03:29:01.111Z,27.10
2022-07-25T03:31:28.556Z,27.10
2022-07-25T03:33:55.358Z,27.10
2022-07-25T03:36:22.352Z,27.10
2022-07-25T03:38:49.081Z,27.00
2022-07-25T03:41:15.805Z,27.00
2022-07-25T03:43:42.430Z,27.00
2022-07-25T03:46:09.155Z,27.00
2022-07-25T03:48:35.862Z,27.00
2022-07-25T03:51:06.895Z,26.90
2022-07-25T03:53:54.270Z,26.90
2022-07-25T03:56:21.067Z,26.90
2022-07-25T03:58:47.700Z,26.90
2022-07-25T04:01:14.407Z,26.80
2022-07-25T04:03:41.083Z,26.90
2022-07-25T04:06:10.467Z,26.70
2022-07-25T04:08:37.069Z,26.80
2022-07-25T04:11:03.773Z,26.80
2022-07-25T04:13:30.376Z,26.80
2022-07-25T04:15:57.006Z,26.70
2022-07-25T04:18:28.592Z,26.80
2022-07-25T04:20:55.423Z,26.80
2022-07-25T04:23:22.279Z,26.80
2022-07-25T04:25:49.105Z,26.80
2022-07-25T04:28:15.831Z,26.80
2022-07-25T04:30:45.326Z,26.70
2022-07-25T04:33:13.371Z,26.80
2022-07-25T04:35:40.447Z,26.80
2022-07-25T04:38:11.763Z,26.80
2022-07-25T04:40:39.010Z,26.80
2022-07-25T04:43:06.020Z,26.80
2022-07-25T04:45:34.721Z,26.80
2022-07-25T04:48:02.094Z,26.80
2022-07-25T04:50:29.455Z,26.80
2022-07-25T04:52:56.232Z,26.90
2022-07-25T04:55:24.702Z,26.80
2022-07-25T04:57:51.620Z,26.80
2022-07-25T05:00:18.548Z,26.90
2022-07-25T05:02:45.327Z,26.90
2022-07-25T05:05:20.783Z,26.90
2022-07-25T05:07:48.587Z,26.90
2022-07-25T05:10:15.268Z,26.90
2022-07-25T05:12:41.937Z,26.90
2022-07-25T05:15:09.526Z,26.90
2022-07-25T05:17:36.246Z,26.90
2022-07-25T05:20:03.033Z,26.90
2022-07-25T05:22:29.755Z,26.90
2022-07-25T05:24:56.456Z,26.90
2022-07-25T05:27:23.311Z,26.90
2022-07-25T05:29:50.035Z,26.90
2022-07-25T05:32:16.694Z,26.90
2022-07-25T05:34:43.357Z,26.90
2022-07-25T05:37:09.990Z,27.00
2022-07-25T05:39:39.673Z,27.00
2022-07-25T05:42:07.808Z,27.00
2022-07-25T05:44:34.803Z,27.00
2022-07-25T05:47:01.500Z,27.00
2022-07-25T05:49:28.350Z,27.10
2022-07-25T05:51:54.978Z,27.10
2022-07-25T05:54:21.614Z,27.10
2022-07-25T05:56:48.312Z,27.10
2022-07-25T05:59:16.105Z,27.20
2022-07-25T06:01:42.806Z,27.20
2022-07-25T06:04:09.942Z,27.20
2022-07-25T06:06:36.907Z,27.10
2022-07-25T06:09:07.801Z,27.20
2022-07-25T06:11:34.827Z,27.20
2022-07-25T06:14:01.537Z,27.20
2022-07-25T06:16:28.686Z,27.20
2022-07-25T06:18:55.437Z,27.20
2022-07-25T06:21:22.096Z,27.20
2022-07-25T06:23:48.715Z,27.20
2022-07-25T06:26:15.366Z,27.30
2022-07-25T06:28:42.024Z,27.30
2022-07-25T06:31:08.871Z,27.30
2022-07-25T06:33:35.617Z,27.40
2022-07-25T06:36:02.235Z,27.40
2022-07-25T06:38:28.914Z,27.40
2022-07-25T06:40:55.613Z,27.40
2022-07-25T06:43:22.341Z,27.40
2022-07-25T06:45:49.839Z,27.40
2022-07-25T06:48:16.933Z,27.40
2022-07-25T06:50:43.880Z,27.40
2022-07-25T06:53:10.635Z,27.40
2022-07-25T06:55:37.614Z,27.50
2022-07-25T06:58:04.572Z,27.50
2022-07-25T07:00:31.374Z,27.50
2022-07-25T07:03:01.384Z,27.50
2022-07-25T07:05:31.650Z,27.60
2022-07-25T07:07:59.500Z,27.60
2022-07-25T07:10:26.832Z,27.60
2022-07-25T07:13:07.897Z,27.60
2022-07-25T07:15:35.326Z,27.60
2022-07-25T07:18:02.310Z,27.60
2022-07-25T07:20:29.662Z,27.60
2022-07-25T07:22:56.555Z,27.70
2022-07-25T07:25:24.536Z,27.70
2022-07-25T07:27:55.243Z,27.70
2022-07-25T07:30:25.937Z,27.70
2022-07-25T07:33:00.340Z,27.70
2022-07-25T07:35:27.467Z,27.80
2022-07-25T07:37:55.336Z,27.80
2022-07-25T07:40:22.556Z,27.80
2022-07-25T07:42:50.613Z,27.80
2022-07-25T07:45:22.946Z,27.90
2022-07-25T07:47:51.657Z,27.90
2022-07-25T07:50:21.095Z,28.00
2022-07-25T07:52:48.896Z,28.00
2022-07-25T07:55:34.331Z,28.10
2022-07-25T07:58:01.738Z,28.10
2022-07-25T08:00:30.946Z,28.10
2022-07-25T08:02:58.816Z,28.20
2022-07-25T08:05:38.725Z,28.20
2022-07-25T08:08:07.231Z,28.30
2022-07-25T08:10:36.489Z,28.30
2022-07-25T08:13:13.263Z,28.30
2022-07-25T08:15:40.948Z,28.40
2022-07-25T08:18:17.573Z,28.40
2022-07-25T08:20:46.112Z,28.50
2022-07-25T08:23:13.544Z,28.50
2022-07-25T08:25:40.449Z,28.50
2022-07-25T08:28:07.576Z,28.60
2022-07-25T08:30:36.569Z,28.70
2022-07-25T08:33:07.780Z,28.70
2022-07-25T08:35:35.018Z,28.70
2022-07-25T08:38:02.910Z,28.80
2022-07-25T08:40:31.435Z,28.70
2022-07-25T08:42:58.901Z,28.80
2022-07-25T08:45:27.921Z,28.80
2022-07-25T08:47:55.658Z,28.90
2022-07-25T08:50:25.495Z,28.90
2022-07-25T08:53:10.036Z,28.90
2022-07-25T08:55:40.070Z,28.90
2022-07-25T08:58:06.842Z,29.00
2022-07-25T09:00:33.773Z,29.00
2022-07-25T09:03:03.090Z,29.10
2022-07-25T09:05:32.110Z,29.10
2022-07-25T09:08:20.056Z,29.10
2022-07-25T09:10:49.607Z,29.10
2022-07-25T09:13:17.877Z,29.20
2022-07-25T09:15:49.521Z,29.20
2022-07-25T09:18:23.456Z,29.20
2022-07-25T09:20:53.315Z,29.30
2022-07-25T09:23:31.980Z,29.30
2022-07-25T09:26:07.910Z,29.30
2022-07-25T09:28:46.939Z,29.30
2022-07-25T09:31:15.452Z,29.40
2022-07-25T09:33:47.928Z,29.50
2022-07-25T09:36:14.807Z,29.60
2022-07-25T09:38:55.584Z,29.60
2022-07-25T09:41:23.266Z,29.70
2022-07-25T09:43:50.429Z,29.70
2022-07-25T09:46:17.180Z,29.70
2022-07-25T09:48:45.345Z,29.70
2022-07-25T09:51:12.247Z,29.80
2022-07-25T09:53:39.882Z,29.80
2022-07-25T09:56:08.454Z,29.80
2022-07-25T09:58:35.227Z,29.80
2022-07-25T10:01:05.944Z,29.80
2022-07-25T10:04:03.519Z,29.90
2022-07-25T10:07:04.153Z,29.90
2022-07-25T10:09:31.952Z,29.90
2022-07-25T10:12:10.653Z,30.00
2022-07-25T10:14:38.590Z,30.00
2022-07-25T10:17:06.321Z,30.00
2022-07-25T10:19:50.803Z,30.00
2022-07-25T10:22:34.332Z,30.00
2022-07-25T10:25:17.754Z,30.00
2022-07-25T10:27:50.706Z,30.10
2022-07-25T10:30:26.150Z,30.30
2022-07-25T10:33:15.003Z,30.60
2022-07-25T10:35:42.441Z,30.60
2022-07-25T10:38:09.617Z,30.70
2022-07-25T10:40:44.241Z,30.60
2022-07-25T10:43:19.508Z,30.80
2022-07-25T10:45:54.279Z,30.90
2022-07-25T10:48:23.463Z,31.00
2022-07-25T10:51:00.500Z,30.90
2022-07-25T10:53:41.137Z,30.90
2022-07-25T10:56:12.848Z,30.90
2022-07-25T10:59:05.884Z,30.80
2022-07-25T11:01:36.458Z,30.80
2022-07-25T11:04:15.575Z,30.80
2022-07-25T11:06:43.180Z,31.00
2022-07-25T11:09:21.626Z,31.20
2022-07-25T11:11:53.584Z,31.40
2022-07-25T11:14:34.250Z,31.60
2022-07-25T11:17:15.327Z,31.60
2022-07-25T11:19:43.792Z,31.60
2022-07-25T11:22:11.556Z,31.50
2022-07-25T11:24:40.902Z,31.30
2022-07-25T11:27:12.161Z,31.60
2022-07-25T11:29:40.431Z,31.80
2022-07-25T11:32:10.080Z,31.90
2022-07-25T11:34:42.904Z,31.90
2022-07-25T11:37:11.450Z,31.80
2022-07-25T11:39:42.072Z,31.90
2022-07-25T11:42:10.157Z,32.00
2022-07-25T11:44:38.412Z,32.20
2022-07-25T11:47:09.002Z,32.30
2022-07-25T11:49:48.588Z,32.40
2022-07-25T11:52:35.951Z,32.40
2022-07-25T11:55:06.912Z,32.30
2022-07-25T11:57:44.851Z,32.40
2022-07-25T12:00:18.929Z,32.40
2022-07-25T12:02:47.750Z,32.50
2022-07-25T12:05:17.322Z,32.50
2022-07-25T12:07:53.024Z,32.60
2022-07-25T12:10:31.344Z,32.60
2022-07-25T12:12:59.679Z,32.50
2022-07-25T12:15:29.969Z,32.60
2022-07-25T12:17:58.190Z,32.50
2022-07-25T12:20:38.440Z,32.40
2022-07-25T12:23:08.946Z,32.50
2022-07-25T12:25:40.198Z,32.70
2022-07-25T12:28:08.223Z,32.90
2022-07-25T12:30:35.108Z,33.10
2022-07-25T12:33:02.054Z,33.00
2022-07-25T12:35:29.208Z,33.00
2022-07-25T12:37:55.846Z,33.00
2022-07-25T12:40:22.660Z,33.10
2022-07-25T12:42:49.940Z,33.10
2022-07-25T12:45:17.885Z,33.20
2022-07-25T12:47:45.792Z,33.20
2022-07-25T12:50:13.641Z,33.30
2022-07-25T12:52:41.636Z,33.40
2022-07-25T12:55:10.969Z,33.40
2022-07-25T12:57:38.231Z,33.30
2022-07-25T13:00:07.730Z,33.50
2022-07-25T13:02:34.532Z,33.70
2022-07-25T13:05:01.400Z,33.80
2022-07-25T13:07:28.157Z,33.90
2022-07-25T13:09:54.824Z,34.10
2022-07-25T13:12:23.528Z,34.20
2022-07-25T13:14:51.077Z,34.10
2022-07-25T13:17:17.856Z,34.10
2022-07-25T13:19:44.678Z,34.30
2022-07-25T13:22:11.355Z,34.50
2022-07-25T13:24:39.236Z,34.50
2022-07-25T13:27:06.815Z,34.40
2022-07-25T13:29:34.544Z,34.50
2022-07-25T13:32:01.874Z,34.70
2022-07-25T13:34:28.702Z,34.70
2022-07-25T13:36:55.380Z,34.70
2022-07-25T13:39:22.481Z,34.70
2022-07-25T13:41:49.634Z,34.70
2022-07-25T13:44:16.691Z,34.80
2022-07-25T13:46:46.353Z,34.80
2022-07-25T13:49:13.229Z,34.70
2022-07-25T13:51:39.955Z,34.80
2022-07-25T13:54:13.021Z,35.00
2022-07-25T13:56:41.418Z,35.00
2022-07-25T13:59:09.234Z,35.10
2022-07-25T14:01:36.323Z,35.10
2022-07-25T14:04:03.087Z,35.10
2022-07-25T14:06:29.806Z,35.00
2022-07-25T14:08:56.433Z,35.20
2022-07-25T14:11:26.016Z,35.10
2022-07-25T14:13:57.052Z,35.00
2022-07-25T14:16:23.900Z,34.90
2022-07-25T14:18:50.804Z,34.90
2022-07-25T14:21:17.446Z,34.80
2022-07-25T14:23:44.271Z,34.80
2022-07-25T14:26:11.326Z,35.00
2022-07-25T14:28:38.069Z,35.20
2022-07-25T14:31:04.887Z,35.30
2022-07-25T14:33:31.664Z,35.40
2022-07-25T14:35:59.303Z,35.40
2022-07-25T14:38:26.132Z,35.50
2022-07-25T14:40:52.807Z,35.50
2022-07-25T14:43:19.538Z,35.40
2022-07-25T14:45:46.259Z,35.40
2022-07-25T14:48:13.084Z,35.60
2022-07-25T14:50:39.892Z,35.40
2022-07-25T14:53:06.751Z,35.10
2022-07-25T14:55:34.206Z,34.90
2022-07-25T14:58:02.503Z,34.70
2022-07-25T15:00:30.200Z,34.70
2022-07-25T15:02:57.312Z,34.50
2022-07-25T15:05:23.962Z,34.30
2022-07-25T15:07:50.917Z,34.20
2022-07-25T15:10:17.641Z,34.10
2022-07-25T15:12:44.273Z,34.00
2022-07-25T15:15:11.433Z,33.80
2022-07-25T15:17:38.827Z,33.70
2022-07-25T15:20:06.188Z,33.50
2022-07-25T15:22:32.897Z,33.40
2022-07-25T15:27:46.178Z,33.30
2022-07-25T15:30:12.994Z,33.30
2022-07-25T15:32:40.156Z,33.20
2022-07-25T15:35:07.357Z,33.30
2022-07-25T15:37:34.093Z,33.30
2022-07-25T15:40:00.882Z,33.50
2022-07-25T15:42:29.470Z,33.70
2022-07-25T15:45:22.285Z,33.80
2022-07-25T15:47:46.298Z,33.70
2022-07-25T15:50:20.408Z,33.70
2022-07-25T15:52:47.328Z,33.60
2022-07-25T15:55:14.175Z,33.50
2022-07-25T15:57:40.985Z,33.40
2022-07-25T16:00:09.434Z,33.40
2022-07-25T16:02:36.184Z,33.20
2022-07-25T16:05:04.217Z,33.20
2022-07-25T16:07:31.349Z,33.20
2022-07-25T16:09:58.939Z,33.10
2022-07-25T16:12:28.659Z,33.00
2022-07-25T16:14:56.294Z,33.00
2022-07-25T16:17:28.151Z,32.90
2022-07-25T16:20:26.672Z,32.90
2022-07-25T16:23:19.184Z,32.80
2022-07-25T16:25:46.362Z,32.80
2022-07-25T16:28:13.459Z,32.70
2022-07-25T16:30:40.240Z,32.50
2022-07-25T16:33:07.027Z,32.40
2022-07-25T16:35:33.994Z,32.30
2022-07-25T16:38:00.780Z,32.20
2022-07-25T16:40:30.979Z,32.20
2022-07-25T16:42:59.344Z,32.50
2022-07-25T16:45:27.029Z,32.70
2022-07-25T16:47:54.122Z,33.20
2022-07-25T16:50:20.930Z,33.30
2022-07-25T16:52:48.491Z,33.40
2022-07-25T16:55:15.314Z,33.60
2022-07-25T16:57:42.209Z,33.70
2022-07-25T17:00:10.055Z,33.80
2022-07-25T17:02:37.468Z,34.00
2022-07-25T17:05:04.834Z,34.40
2022-07-25T17:07:32.144Z,34.20
2022-07-25T17:09:58.829Z,34.00
2022-07-25T17:12:25.838Z,33.90
2022-07-25T17:14:52.783Z,34.10
2022-07-25T17:17:19.912Z,34.10
2022-07-25T17:19:46.993Z,33.90
2022-07-25T17:22:13.884Z,34.10
2022-07-25T17:24:41.970Z,34.40
2022-07-25T17:27:09.308Z,34.70
2022-07-25T17:29:36.717Z,34.70
2022-07-25T17:32:05.950Z,34.70
2022-07-25T17:34:33.238Z,34.90
2022-07-25T17:37:02.772Z,34.90
2022-07-25T17:39:33.874Z,34.80
2022-07-25T17:42:01.675Z,34.70
2022-07-25T17:44:28.452Z,34.50
2022-07-25T17:46:57.193Z,34.10
2022-07-25T17:49:24.077Z,33.90
2022-07-25T17:51:51.099Z,33.80
2022-07-25T17:54:18.603Z,33.80
2022-07-25T17:56:45.524Z,33.70
2022-07-25T17:59:12.589Z,33.70
2022-07-25T18:01:39.990Z,33.80
2022-07-25T18:04:07.266Z,34.00
2022-07-25T18:06:34.729Z,34.00
2022-07-25T18:09:01.466Z,34.10
2022-07-25T18:11:28.115Z,34.20
2022-07-25T18:13:54.894Z,34.10
2022-07-25T18:16:21.789Z,34.00
2022-07-25T18:18:48.612Z,33.80
2022-07-25T18:21:15.290Z,33.50
2022-07-25T18:23:42.112Z,33.40
2022-07-25T18:26:09.112Z,33.20
2022-07-25T18:28:36.331Z,33.10
2022-07-25T18:31:03.046Z,32.90
2022-07-25T18:33:29.744Z,32.90
2022-07-25T18:35:56.404Z,32.80
2022-07-25T18:38:23.118Z,32.80
2022-07-25T18:41:06.524Z,32.40
2022-07-25T18:43:36.524Z,32.20
2022-07-25T18:46:03.720Z,32.10
2022-07-25T18:48:33.333Z,32.00
2022-07-25T18:51:00.046Z,32.00
2022-07-25T18:53:26.666Z,31.90
2022-07-25T18:55:53.882Z,31.80
2022-07-25T18:58:20.635Z,31.60
2022-07-25T19:00:47.282Z,31.40
2022-07-25T19:03:14.001Z,31.30
2022-07-25T19:05:41.497Z,31.20
2022-07-25T19:08:08.304Z,31.20
2022-07-25T19:10:35.108Z,31.10
2022-07-25T19:13:02.303Z,31.10
2022-07-25T19:15:29.173Z,31.00
2022-07-25T19:17:56.415Z,30.90
2022-07-25T19:20:23.360Z,30.90
2022-07-25T19:22:50.194Z,30.80
2022-07-25T19:25:16.945Z,30.80
2022-07-25T19:27:43.695Z,30.80
2022-07-25T19:30:16.840Z,30.70
2022-07-25T19:32:44.393Z,30.70
2022-07-25T19:35:11.276Z,30.60
2022-07-25T19:37:38.092Z,30.60
2022-07-25T19:40:06.447Z,30.60
2022-07-25T19:42:33.480Z,30.60
2022-07-25T19:45:00.129Z,30.50
2022-07-25T19:47:27.451Z,30.50
2022-07-25T19:49:54.467Z,30.50
2022-07-25T19:52:21.302Z,30.40
2022-07-25T19:54:48.013Z,30.40
2022-07-25T19:57:14.859Z,30.40
2022-07-25T19:59:43.151Z,30.20
2022-07-25T20:02:11.368Z,30.00
2022-07-25T20:04:38.594Z,29.80
2022-07-25T20:07:06.491Z,29.50
2022-07-25T20:09:34.776Z,29.40
2022-07-25T20:12:03.235Z,29.20
2022-07-25T20:14:29.937Z,29.20
2022-07-25T20:16:57.992Z,29.10
2022-07-25T20:19:25.281Z,29.00
2022-07-25T20:21:52.443Z,28.90
2022-07-25T20:24:21.680Z,28.80
2022-07-25T20:26:48.803Z,28.80
2022-07-25T20:29:15.976Z,28.80
2022-07-25T20:31:44.861Z,28.70
2022-07-25T20:34:15.174Z,28.60
2022-07-25T20:36:42.324Z,28.60
2022-07-25T20:39:09.852Z,28.50
2022-07-25T20:41:37.851Z,28.40
2022-07-25T20:44:05.922Z,28.40
2022-07-25T20:46:35.771Z,28.30
2022-07-25T20:49:08.621Z,28.20
2022-07-25T20:51:37.504Z,28.20
2022-07-25T20:54:05.061Z,28.10
2022-07-25T20:56:32.399Z,28.00
2022-07-25T20:58:59.277Z,27.90
2022-07-25T21:01:26.118Z,27.90
2022-07-25T21:03:52.844Z,27.80
2022-07-25T21:06:19.745Z,27.80
2022-07-25T21:08:54.457Z,27.70
2022-07-25T21:11:22.388Z,27.60
2022-07-25T21:13:49.552Z,27.50
2022-07-25T21:16:16.340Z,27.50
2022-07-25T21:18:43.007Z,27.50
2022-07-25T21:21:12.403Z,27.40
2022-07-25T21:23:39.212Z,27.20
2022-07-25T21:26:06.028Z,27.20
2022-07-25T21:28:33.986Z,27.10
2022-07-25T21:31:01.050Z,27.10
2022-07-25T21:33:27.721Z,27.00
2022-07-25T21:35:55.321Z,26.90
2022-07-25T21:38:26.728Z,26.90
2022-07-25T21:40:55.743Z,26.80
2022-07-25T21:43:22.621Z,26.80
2022-07-25T21:45:49.338Z,26.70
2022-07-25T21:48:16.027Z,26.70
2022-07-25T21:50:48.757Z,26.70
2022-07-25T21:53:17.285Z,26.70
2022-07-25T21:55:43.983Z,26.70
2022-07-25T21:58:10.715Z,26.70
2022-07-25T22:00:41.801Z,26.60
2022-07-25T22:03:12.394Z,26.40
2022-07-25T22:05:39.365Z,26.30
2022-07-25T22:08:06.240Z,26.30
2022-07-25T22:10:33.816Z,26.20
2022-07-25T22:13:01.062Z,26.10
2022-07-25T22:15:27.702Z,26.00
2022-07-25T22:17:54.429Z,25.90
2022-07-25T22:20:21.111Z,25.90
2022-07-25T22:22:48.640Z,25.80
2022-07-25T22:25:16.211Z,25.70
2022-07-25T22:27:43.764Z,25.60
2022-07-25T22:30:17.980Z,25.60
2022-07-25T22:32:46.055Z,25.60
2022-07-25T22:35:12.955Z,25.60
2022-07-25T22:37:39.761Z,25.70
2022-07-25T22:40:07.162Z,25.70
2022-07-25T22:42:33.858Z,25.70
2022-07-25T22:45:00.544Z,25.70
2022-07-25T22:47:27.781Z,25.70
2022-07-25T22:49:54.420Z,25.90
2022-07-25T22:52:21.055Z,26.00
2022-07-25T22:54:47.725Z,26.00
2022-07-25T22:57:14.397Z,26.00
2022-07-25T22:59:41.290Z,26.00
2022-07-25T23:02:08.158Z,26.10
2022-07-25T23:04:35.198Z,26.10
2022-07-25T23:07:02.223Z,26.00
2022-07-25T23:09:33.785Z,26.00
2022-07-25T23:12:04.475Z,25.90
2022-07-25T23:14:31.357Z,25.80
2022-07-25T23:17:16.492Z,25.90
2022-07-25T23:19:47.692Z,26.00
2022-07-25T23:22:14.817Z,26.10
2022-07-25T23:24:41.986Z,26.30
2022-07-25T23:27:08.866Z,26.40
2022-07-25T23:29:35.548Z,26.40
2022-07-25T23:32:02.717Z,26.40
2022-07-25T23:34:29.502Z,26.30
2022-07-25T23:36:56.273Z,26.30
2022-07-25T23:39:23.206Z,26.30
2022-07-25T23:41:50.008Z,26.30
2022-07-25T23:44:16.695Z,26.30
2022-07-25T23:46:43.910Z,26.40
2022-07-25T23:49:12.065Z,26.20
2022-07-25T23:51:39.409Z,26.10
2022-07-25T23:54:06.134Z,26.00
2022-07-25T23:56:32.941Z,26.10
2022-07-25T23:58:59.592Z,26.20
